sensor_id;sensor_type;location;lat;lon;timestamp;P1;durP1;ratioP1;P2;durP2;ratioP2
6862;SDS011;3470;48.738;9.616;2022-11-20T17:04:12;5.87;;;4.27;;
6862;SDS011;3470;48.738;9.616;2022-11-20T17:06:39;3.70;;;2.70;;
6862;SDS011;3470;48.738;9.616;2022-11-20T17:09:08;4.60;;;4.07;;
6862;SDS011;3470;48.738;9.616;2022-11-20T17:11:34;9.10;;;6.63;;
6862;SDS011;3470;48.738;9.616;2022-11-20T17:14:00;6.03;;;5.27;;
6862;SDS011;3470;48.738;9.616;2022-11-20T17:16:31;6.07;;;5.10;;
6862;SDS011;3470;48.738;9.616;2022-11-20T17:18:58;7.40;;;4.93;;
6862;SDS011;3470;48.738;9.616;2022-11-20T17:21:24;6.53;;;4.77;;
6862;SDS011;3470;48.738;9.616;2022-11-20T17:23:50;6.07;;;4.90;;
6862;SDS011;3470;48.738;9.616;2022-11-20T17:26:19;8.80;;;6.87;;
6862;SDS011;3470;48.738;9.616;2022-11-20T17:28:57;7.60;;;6.73;;
6862;SDS011;3470;48.738;9.616;2022-11-20T17:31:24;7.00;;;4.37;;
6862;SDS011;3470;48.738;9.616;2022-11-20T17:33:50;4.97;;;4.40;;
6862;SDS011;3470;48.738;9.616;2022-11-20T17:36:17;5.20;;;4.10;;
6862;SDS011;3470;48.738;9.616;2022-11-20T17:38:43;4.87;;;4.00;;
6862;SDS011;3470;48.738;9.616;2022-11-20T17:41:16;5.57;;;4.10;;
6862;SDS011;3470;48.738;9.616;2022-11-20T17:43:43;4.03;;;3.63;;
6862;SDS011;3470;48.738;9.616;2022-11-20T17:46:10;4.43;;;3.30;;
6862;SDS011;3470;48.738;9.616;2022-11-20T17:48:37;4.50;;;3.30;;
6862;SDS011;3470;48.738;9.616;2022-11-20T17:51:06;5.87;;;3.00;;
6862;SDS011;3470;48.738;9.616;2022-11-20T17:53:32;4.60;;;3.30;;
6862;SDS011;3470;48.738;9.616;2022-11-20T17:56:00;3.87;;;3.20;;
6862;SDS011;3470;48.738;9.616;2022-11-20T17:58:44;5.97;;;3.57;;
6862;SDS011;3470;48.738;9.616;2022-11-20T18:01:10;4.20;;;3.20;;
6862;SDS011;3470;48.738;9.616;2022-11-20T18:03:36;5.70;;;3.13;;
6862;SDS011;3470;48.738;9.616;2022-11-20T18:06:12;4.67;;;3.47;;
6862;SDS011;3470;48.738;9.616;2022-11-20T18:08:38;4.93;;;3.40;;
6862;SDS011;3470;48.738;9.616;2022-11-20T18:11:11;5.67;;;3.87;;
6862;SDS011;3470;48.738;9.616;2022-11-20T18:13:42;4.73;;;4.17;;
6862;SDS011;3470;48.738;9.616;2022-11-20T18:16:29;5.60;;;3.93;;
6862;SDS011;3470;48.738;9.616;2022-11-20T18:18:56;5.30;;;4.60;;
6862;SDS011;3470;48.738;9.616;2022-11-20T18:21:23;5.80;;;5.00;;
6862;SDS011;3470;48.738;9.616;2022-11-20T18:23:56;6.27;;;4.90;;
6862;SDS011;3470;48.738;9.616;2022-11-20T18:26:22;5.73;;;3.93;;
6862;SDS011;3470;48.738;9.616;2022-11-20T18:28:49;5.73;;;3.40;;
6862;SDS011;3470;48.738;9.616;2022-11-20T18:31:16;6.20;;;3.47;;
6862;SDS011;3470;48.738;9.616;2022-11-20T18:33:42;5.10;;;3.50;;
6862;SDS011;3470;48.738;9.616;2022-11-20T18:36:11;3.37;;;3.00;;
6862;SDS011;3470;48.738;9.616;2022-11-20T18:38:42;4.63;;;3.30;;
6862;SDS011;3470;48.738;9.616;2022-11-20T18:41:11;4.13;;;3.07;;
6862;SDS011;3470;48.738;9.616;2022-11-20T18:43:57;5.00;;;3.60;;
6862;SDS011;3470;48.738;9.616;2022-11-20T18:46:44;4.87;;;3.83;;
6862;SDS011;3470;48.738;9.616;2022-11-20T18:49:11;5.23;;;3.83;;
6862;SDS011;3470;48.738;9.616;2022-11-20T18:51:37;4.97;;;3.80;;
6862;SDS011;3470;48.738;9.616;2022-11-20T18:54:03;4.47;;;3.40;;
6862;SDS011;3470;48.738;9.616;2022-11-20T18:56:30;6.13;;;3.57;;
6862;SDS011;3470;48.738;9.616;2022-11-20T18:58:58;5.63;;;4.50;;
6862;SDS011;3470;48.738;9.616;2022-11-20T19:01:24;5.07;;;3.90;;
6862;SDS011;3470;48.738;9.616;2022-11-20T19:03:50;3.77;;;2.87;;
6862;SDS011;3470;48.738;9.616;2022-11-20T19:06:16;4.73;;;3.90;;
6862;SDS011;3470;48.738;9.616;2022-11-20T19:08:42;4.63;;;3.80;;
6862;SDS011;3470;48.738;9.616;2022-11-20T19:11:08;4.17;;;3.37;;
6862;SDS011;3470;48.738;9.616;2022-11-20T19:13:35;4.10;;;3.30;;
6862;SDS011;3470;48.738;9.616;2022-11-20T19:16:05;4.60;;;3.40;;
6862;SDS011;3470;48.738;9.616;2022-11-20T19:18:33;3.77;;;3.20;;
6862;SDS011;3470;48.738;9.616;2022-11-20T19:21:08;3.13;;;2.00;;
6862;SDS011;3470;48.738;9.616;2022-11-20T19:23:35;4.33;;;2.33;;
6862;SDS011;3470;48.738;9.616;2022-11-20T19:26:00;3.10;;;2.80;;
6862;SDS011;3470;48.738;9.616;2022-11-20T19:28:29;5.57;;;3.20;;
6862;SDS011;3470;48.738;9.616;2022-11-20T19:31:00;4.50;;;3.30;;
6862;SDS011;3470;48.738;9.616;2022-11-20T19:33:33;6.10;;;4.10;;
6862;SDS011;3470;48.738;9.616;2022-11-20T19:36:09;6.57;;;3.47;;
6862;SDS011;3470;48.738;9.616;2022-11-20T19:38:36;5.30;;;3.87;;
6862;SDS011;3470;48.738;9.616;2022-11-20T19:41:03;5.07;;;3.70;;
6862;SDS011;3470;48.738;9.616;2022-11-20T19:43:29;5.97;;;3.10;;
6862;SDS011;3470;48.738;9.616;2022-11-20T19:45:55;3.73;;;2.90;;
6862;SDS011;3470;48.738;9.616;2022-11-20T19:48:21;4.43;;;2.90;;
6862;SDS011;3470;48.738;9.616;2022-11-20T19:50:47;3.70;;;2.90;;
6862;SDS011;3470;48.738;9.616;2022-11-20T19:53:12;4.17;;;2.47;;
6862;SDS011;3470;48.738;9.616;2022-11-20T19:55:38;3.50;;;3.20;;
6862;SDS011;3470;48.738;9.616;2022-11-20T19:58:03;3.93;;;3.50;;
6862;SDS011;3470;48.738;9.616;2022-11-20T20:00:30;3.20;;;2.90;;
6862;SDS011;3470;48.738;9.616;2022-11-20T20:02:56;4.10;;;3.20;;
6862;SDS011;3470;48.738;9.616;2022-11-20T20:05:21;3.30;;;2.60;;
6862;SDS011;3470;48.738;9.616;2022-11-20T20:07:47;2.63;;;2.43;;
6862;SDS011;3470;48.738;9.616;2022-11-20T20:10:12;2.80;;;2.47;;
6862;SDS011;3470;48.738;9.616;2022-11-20T20:12:38;2.40;;;2.00;;
6862;SDS011;3470;48.738;9.616;2022-11-20T20:15:04;2.63;;;2.43;;
6862;SDS011;3470;48.738;9.616;2022-11-20T20:17:30;2.67;;;2.47;;
6862;SDS011;3470;48.738;9.616;2022-11-20T20:19:56;3.17;;;2.87;;
6862;SDS011;3470;48.738;9.616;2022-11-20T20:22:21;5.03;;;3.97;;
6862;SDS011;3470;48.738;9.616;2022-11-20T20:24:47;4.00;;;2.83;;
6862;SDS011;3470;48.738;9.616;2022-11-20T20:27:13;3.90;;;3.13;;
6862;SDS011;3470;48.738;9.616;2022-11-20T20:29:38;3.57;;;3.10;;
6862;SDS011;3470;48.738;9.616;2022-11-20T20:32:04;3.50;;;2.97;;
6862;SDS011;3470;48.738;9.616;2022-11-20T20:34:29;3.60;;;3.30;;
6862;SDS011;3470;48.738;9.616;2022-11-20T20:36:56;6.60;;;4.13;;
6862;SDS011;3470;48.738;9.616;2022-11-20T20:39:21;5.13;;;3.37;;
6862;SDS011;3470;48.738;9.616;2022-11-20T20:41:48;4.00;;;3.23;;
6862;SDS011;3470;48.738;9.616;2022-11-20T20:44:14;5.10;;;3.97;;
6862;SDS011;3470;48.738;9.616;2022-11-20T20:46:58;3.87;;;2.90;;
6862;SDS011;3470;48.738;9.616;2022-11-20T20:49:24;5.07;;;3.27;;
6862;SDS011;3470;48.738;9.616;2022-11-20T20:51:49;4.07;;;3.40;;
6862;SDS011;3470;48.738;9.616;2022-11-20T20:54:15;5.17;;;3.77;;
6862;SDS011;3470;48.738;9.616;2022-11-20T20:56:41;5.70;;;4.00;;
6862;SDS011;3470;48.738;9.616;2022-11-20T20:59:06;4.53;;;4.10;;
6862;SDS011;3470;48.738;9.616;2022-11-20T21:01:32;5.10;;;3.80;;
6862;SDS011;3470;48.738;9.616;2022-11-20T21:03:58;6.03;;;3.77;;
6862;SDS011;3470;48.738;9.616;2022-11-20T21:06:24;3.73;;;3.40;;
6862;SDS011;3470;48.738;9.616;2022-11-20T21:08:50;3.83;;;2.83;;
6862;SDS011;3470;48.738;9.616;2022-11-20T21:11:16;5.87;;;3.80;;
6862;SDS011;3470;48.738;9.616;2022-11-20T21:13:44;3.27;;;2.93;;
6862;SDS011;3470;48.738;9.616;2022-11-20T21:16:12;3.50;;;3.10;;
6862;SDS011;3470;48.738;9.616;2022-11-20T21:18:39;4.70;;;3.57;;
6862;SDS011;3470;48.738;9.616;2022-11-20T21:21:05;2.90;;;2.50;;
6862;SDS011;3470;48.738;9.616;2022-11-20T21:23:51;3.43;;;3.13;;
6862;SDS011;3470;48.738;9.616;2022-11-20T21:26:17;3.10;;;2.80;;
6862;SDS011;3470;48.738;9.616;2022-11-20T21:28:43;4.90;;;3.80;;
6862;SDS011;3470;48.738;9.616;2022-11-20T21:31:16;3.03;;;2.73;;
6862;SDS011;3470;48.738;9.616;2022-11-20T21:33:47;2.90;;;2.60;;
6862;SDS011;3470;48.738;9.616;2022-11-20T21:36:15;2.43;;;2.23;;
6862;SDS011;3470;48.738;9.616;2022-11-20T21:38:45;2.67;;;1.93;;
6862;SDS011;3470;48.738;9.616;2022-11-20T21:41:11;2.60;;;2.27;;
6862;SDS011;3470;48.738;9.616;2022-11-20T21:43:38;2.77;;;2.10;;
6862;SDS011;3470;48.738;9.616;2022-11-20T21:46:08;2.10;;;1.90;;
6862;SDS011;3470;48.738;9.616;2022-11-20T21:48:35;3.23;;;2.00;;
6862;SDS011;3470;48.738;9.616;2022-11-20T21:51:04;1.57;;;1.47;;
6862;SDS011;3470;48.738;9.616;2022-11-20T21:53:31;2.00;;;1.50;;
6862;SDS011;3470;48.738;9.616;2022-11-20T21:55:57;1.30;;;1.20;;
6862;SDS011;3470;48.738;9.616;2022-11-20T21:58:23;1.27;;;1.17;;
6862;SDS011;3470;48.738;9.616;2022-11-20T22:00:49;3.13;;;1.57;;
6862;SDS011;3470;48.738;9.616;2022-11-20T22:03:14;2.70;;;1.80;;
6862;SDS011;3470;48.738;9.616;2022-11-20T22:05:40;1.53;;;1.30;;
6862;SDS011;3470;48.738;9.616;2022-11-20T22:08:06;1.30;;;1.20;;
6862;SDS011;3470;48.738;9.616;2022-11-20T22:10:32;2.50;;;1.80;;
6862;SDS011;3470;48.738;9.616;2022-11-20T22:12:57;1.50;;;1.40;;
6862;SDS011;3470;48.738;9.616;2022-11-20T22:15:41;1.07;;;1.03;;
6862;SDS011;3470;48.738;9.616;2022-11-20T22:37:33;2.53;;;1.73;;
6862;SDS011;3470;48.738;9.616;2022-11-20T22:39:59;2.87;;;1.67;;
6862;SDS011;3470;48.738;9.616;2022-11-20T22:42:24;2.47;;;1.80;;
6862;SDS011;3470;48.738;9.616;2022-11-20T22:44:50;1.30;;;1.20;;
6862;SDS011;3470;48.738;9.616;2022-11-20T22:47:15;3.47;;;1.30;;
6862;SDS011;3470;48.738;9.616;2022-11-20T22:49:41;1.67;;;1.47;;
6862;SDS011;3470;48.738;9.616;2022-11-20T22:52:06;1.27;;;1.17;;
6862;SDS011;3470;48.738;9.616;2022-11-20T22:54:32;1.40;;;1.30;;
6862;SDS011;3470;48.738;9.616;2022-11-20T22:56:57;3.37;;;1.70;;
6862;SDS011;3470;48.738;9.616;2022-11-20T22:59:23;3.03;;;1.90;;
6862;SDS011;3470;48.738;9.616;2022-11-20T23:01:49;1.50;;;1.33;;
6862;SDS011;3470;48.738;9.616;2022-11-20T23:04:14;3.23;;;1.23;;
6862;SDS011;3470;48.738;9.616;2022-11-20T23:06:40;1.20;;;1.10;;
